Terminal Aerodrome Forecast
Issued by NWS Mobile, AL

Home | Current Version | Previous Version | Text Only | Print | Product List | Glossary On
Versions: 1 2 3 4 5 6 7 8 9 10 11 12 13 14
000
FTUS44 KMOB 182300
TAFMOB
TAF
KMOB 182338Z 1900/1924 36012KT P6SM VCFG FEW012 SCT017 BKN035
      TEMPO 1900/1904 BKN017
     FM190400 35007KT P6SM BKN015
     FM190600 36008KT P6SM SCT015 BKN045 BKN200
     FM191400 36011KT P6SM SCT025 SCT250=

USA.gov is the U.S. government's official web portal to all federal, state and local government web resources and services.